sensor_id;sensor_type;location;lat;lon;timestamp;temperature;humidity
19385;DHT22;9828;54.122;17.974;2023-09-12T00:00:46;19.20;1.00
19385;DHT22;9828;54.122;17.974;2023-09-12T00:06:07;19.00;1.00
19385;DHT22;9828;54.122;17.974;2023-09-12T00:21:49;18.90;1.00
19385;DHT22;9828;54.122;17.974;2023-09-12T00:27:11;18.90;1.00
19385;DHT22;9828;54.122;17.974;2023-09-12T00:45:00;18.70;1.00
19385;DHT22;9828;54.122;17.974;2023-09-12T00:50:23;18.70;1.00
19385;DHT22;9828;54.122;17.974;2023-09-12T00:55:54;18.80;11.40
19385;DHT22;9828;54.122;17.974;2023-09-12T01:01:18;18.70;1.00
19385;DHT22;9828;54.122;17.974;2023-09-12T01:06:40;18.70;99.90
19385;DHT22;9828;54.122;17.974;2023-09-12T01:12:01;18.70;1.00
19385;DHT22;9828;54.122;17.974;2023-09-12T01:17:25;18.60;1.00
19385;DHT22;9828;54.122;17.974;2023-09-12T01:28:23;18.50;1.00
19385;DHT22;9828;54.122;17.974;2023-09-12T01:33:45;18.40;1.00
19385;DHT22;9828;54.122;17.974;2023-09-12T01:39:06;18.40;1.00
19385;DHT22;9828;54.122;17.974;2023-09-12T01:44:28;18.30;1.00
19385;DHT22;9828;54.122;17.974;2023-09-12T01:49:52;18.30;99.90
19385;DHT22;9828;54.122;17.974;2023-09-12T01:55:16;18.30;1.00
19385;DHT22;9828;54.122;17.974;2023-09-12T02:00:38;18.20;1.00
19385;DHT22;9828;54.122;17.974;2023-09-12T02:06:00;18.20;1.00
19385;DHT22;9828;54.122;17.974;2023-09-12T02:11:21;18.10;1.00
19385;DHT22;9828;54.122;17.974;2023-09-12T02:16:42;18.20;99.90
19385;DHT22;9828;54.122;17.974;2023-09-12T02:22:04;18.00;1.00
19385;DHT22;9828;54.122;17.974;2023-09-12T02:27:25;18.10;1.00
19385;DHT22;9828;54.122;17.974;2023-09-12T02:37:33;18.00;99.90
19385;DHT22;9828;54.122;17.974;2023-09-12T02:57:43;17.70;1.00
19385;DHT22;9828;54.122;17.974;2023-09-12T03:08:00;17.60;99.90
19385;DHT22;9828;54.122;17.974;2023-09-12T03:13:22;17.60;1.00
19385;DHT22;9828;54.122;17.974;2023-09-12T03:18:44;17.60;1.00
19385;DHT22;9828;54.122;17.974;2023-09-12T03:24:05;17.60;1.00
19385;DHT22;9828;54.122;17.974;2023-09-12T03:29:27;17.50;1.00
19385;DHT22;9828;54.122;17.974;2023-09-12T03:39:35;17.50;1.00
19385;DHT22;9828;54.122;17.974;2023-09-12T03:44:56;17.40;99.90
19385;DHT22;9828;54.122;17.974;2023-09-12T03:50:17;17.30;99.90
19385;DHT22;9828;54.122;17.974;2023-09-12T03:55:38;17.30;1.00
19385;DHT22;9828;54.122;17.974;2023-09-12T04:01:00;17.30;32.90
19385;DHT22;9828;54.122;17.974;2023-09-12T04:11:37;17.40;54.30
19385;DHT22;9828;54.122;17.974;2023-09-12T04:17:04;17.30;1.00
19385;DHT22;9828;54.122;17.974;2023-09-12T04:22:26;17.20;1.00
19385;DHT22;9828;54.122;17.974;2023-09-12T04:34:18;17.10;69.90
19385;DHT22;9828;54.122;17.974;2023-09-12T04:45:21;17.10;1.00
19385;DHT22;9828;54.122;17.974;2023-09-12T04:50:42;17.20;1.00
19385;DHT22;9828;54.122;17.974;2023-09-12T04:56:04;17.30;99.90
19385;DHT22;9828;54.122;17.974;2023-09-12T05:01:27;17.30;99.90
19385;DHT22;9828;54.122;17.974;2023-09-12T05:06:48;17.40;6.00
19385;DHT22;9828;54.122;17.974;2023-09-12T05:12:10;17.50;1.00
19385;DHT22;9828;54.122;17.974;2023-09-12T05:17:31;17.60;99.90
19385;DHT22;9828;54.122;17.974;2023-09-12T05:22:52;17.70;1.00
19385;DHT22;9828;54.122;17.974;2023-09-12T05:28:13;17.70;54.30
19385;DHT22;9828;54.122;17.974;2023-09-12T05:33:41;17.90;1.00
19385;DHT22;9828;54.122;17.974;2023-09-12T05:39:03;18.00;99.90
19385;DHT22;9828;54.122;17.974;2023-09-12T05:44:24;18.20;1.00
19385;DHT22;9828;54.122;17.974;2023-09-12T05:49:45;18.40;1.00
19385;DHT22;9828;54.122;17.974;2023-09-12T05:55:07;18.60;1.00
19385;DHT22;9828;54.122;17.974;2023-09-12T06:00:28;18.60;1.00
19385;DHT22;9828;54.122;17.974;2023-09-12T06:05:50;18.80;1.00
19385;DHT22;9828;54.122;17.974;2023-09-12T06:11:11;19.00;1.00
19385;DHT22;9828;54.122;17.974;2023-09-12T06:16:32;19.20;1.00
19385;DHT22;9828;54.122;17.974;2023-09-12T06:21:53;19.50;1.00
19385;DHT22;9828;54.122;17.974;2023-09-12T06:27:16;19.60;1.00
19385;DHT22;9828;54.122;17.974;2023-09-12T06:32:40;19.90;1.00
19385;DHT22;9828;54.122;17.974;2023-09-12T06:38:01;20.20;99.90
19385;DHT22;9828;54.122;17.974;2023-09-12T06:43:23;21.30;1.00
19385;DHT22;9828;54.122;17.974;2023-09-12T06:48:47;22.80;1.00
19385;DHT22;9828;54.122;17.974;2023-09-12T06:54:10;24.20;1.00
19385;DHT22;9828;54.122;17.974;2023-09-12T06:59:33;25.30;1.00
19385;DHT22;9828;54.122;17.974;2023-09-12T07:04:55;26.40;1.00
19385;DHT22;9828;54.122;17.974;2023-09-12T07:26:27;29.20;99.90
19385;DHT22;9828;54.122;17.974;2023-09-12T07:31:52;29.70;99.90
19385;DHT22;9828;54.122;17.974;2023-09-12T07:37:14;30.20;99.90
19385;DHT22;9828;54.122;17.974;2023-09-12T07:42:36;30.60;99.90
19385;DHT22;9828;54.122;17.974;2023-09-12T07:47:57;31.00;99.90
19385;DHT22;9828;54.122;17.974;2023-09-12T07:53:18;31.40;99.90
19385;DHT22;9828;54.122;17.974;2023-09-12T07:58:39;31.70;99.90
19385;DHT22;9828;54.122;17.974;2023-09-12T08:04:00;32.00;99.90
19385;DHT22;9828;54.122;17.974;2023-09-12T08:09:21;32.50;99.90
19385;DHT22;9828;54.122;17.974;2023-09-12T08:14:43;32.90;99.90
19385;DHT22;9828;54.122;17.974;2023-09-12T08:20:07;33.40;99.90
19385;DHT22;9828;54.122;17.974;2023-09-12T08:25:30;33.50;99.90
19385;DHT22;9828;54.122;17.974;2023-09-12T08:30:51;34.00;99.90
19385;DHT22;9828;54.122;17.974;2023-09-12T08:36:12;34.20;99.90
19385;DHT22;9828;54.122;17.974;2023-09-12T08:41:34;34.70;99.90
19385;DHT22;9828;54.122;17.974;2023-09-12T08:46:55;34.60;99.90
19385;DHT22;9828;54.122;17.974;2023-09-12T08:52:17;34.60;99.90
19385;DHT22;9828;54.122;17.974;2023-09-12T08:57:42;34.90;99.90
19385;DHT22;9828;54.122;17.974;2023-09-12T09:03:03;35.30;99.90
19385;DHT22;9828;54.122;17.974;2023-09-12T09:08:25;35.80;99.90
19385;DHT22;9828;54.122;17.974;2023-09-12T09:13:47;36.10;99.90
19385;DHT22;9828;54.122;17.974;2023-09-12T09:19:08;36.20;99.90
19385;DHT22;9828;54.122;17.974;2023-09-12T09:24:32;36.20;99.90
19385;DHT22;9828;54.122;17.974;2023-09-12T09:29:53;36.20;99.90
19385;DHT22;9828;54.122;17.974;2023-09-12T09:35:15;36.50;99.90
19385;DHT22;9828;54.122;17.974;2023-09-12T09:40:36;36.80;99.90
19385;DHT22;9828;54.122;17.974;2023-09-12T09:45:58;36.90;99.90
19385;DHT22;9828;54.122;17.974;2023-09-12T09:51:23;37.20;99.90
19385;DHT22;9828;54.122;17.974;2023-09-12T09:56:55;37.20;99.90
19385;DHT22;9828;54.122;17.974;2023-09-12T10:02:18;37.30;99.90
19385;DHT22;9828;54.122;17.974;2023-09-12T10:07:47;37.50;99.80
19385;DHT22;9828;54.122;17.974;2023-09-12T10:13:09;37.90;98.00
19385;DHT22;9828;54.122;17.974;2023-09-12T10:18:37;37.70;96.00
19385;DHT22;9828;54.122;17.974;2023-09-12T10:24:03;37.70;94.10
19385;DHT22;9828;54.122;17.974;2023-09-12T10:29:24;37.70;93.60
19385;DHT22;9828;54.122;17.974;2023-09-12T10:34:46;37.80;91.90
19385;DHT22;9828;54.122;17.974;2023-09-12T10:40:11;37.90;91.50
19385;DHT22;9828;54.122;17.974;2023-09-12T10:45:32;37.80;90.60
19385;DHT22;9828;54.122;17.974;2023-09-12T10:50:57;38.00;90.00
19385;DHT22;9828;54.122;17.974;2023-09-12T10:56:20;38.00;87.80
19385;DHT22;9828;54.122;17.974;2023-09-12T11:01:43;37.50;85.10
19385;DHT22;9828;54.122;17.974;2023-09-12T11:07:30;37.60;85.10
19385;DHT22;9828;54.122;17.974;2023-09-12T11:12:54;38.00;83.90
19385;DHT22;9828;54.122;17.974;2023-09-12T11:18:15;38.20;82.90
19385;DHT22;9828;54.122;17.974;2023-09-12T11:23:38;38.30;80.10
19385;DHT22;9828;54.122;17.974;2023-09-12T11:29:15;38.40;79.00
19385;DHT22;9828;54.122;17.974;2023-09-12T11:34:40;38.00;77.90
19385;DHT22;9828;54.122;17.974;2023-09-12T11:40:01;38.20;77.80
19385;DHT22;9828;54.122;17.974;2023-09-12T11:45:23;38.20;75.60
19385;DHT22;9828;54.122;17.974;2023-09-12T11:50:53;37.80;73.20
19385;DHT22;9828;54.122;17.974;2023-09-12T11:56:14;37.70;94.50
19385;DHT22;9828;54.122;17.974;2023-09-12T12:01:35;37.70;73.00
19385;DHT22;9828;54.122;17.974;2023-09-12T12:06:56;37.40;70.60
19385;DHT22;9828;54.122;17.974;2023-09-12T12:12:17;37.10;70.40
19385;DHT22;9828;54.122;17.974;2023-09-12T12:17:42;36.90;68.60
19385;DHT22;9828;54.122;17.974;2023-09-12T12:23:03;36.90;68.50
19385;DHT22;9828;54.122;17.974;2023-09-12T12:28:25;36.80;67.80
19385;DHT22;9828;54.122;17.974;2023-09-12T12:33:48;36.80;67.10
19385;DHT22;9828;54.122;17.974;2023-09-12T12:39:13;36.60;67.50
19385;DHT22;9828;54.122;17.974;2023-09-12T12:44:35;36.50;66.90
19385;DHT22;9828;54.122;17.974;2023-09-12T12:50:01;36.40;66.10
19385;DHT22;9828;54.122;17.974;2023-09-12T12:55:25;36.10;65.50
19385;DHT22;9828;54.122;17.974;2023-09-12T13:00:46;35.50;63.90
19385;DHT22;9828;54.122;17.974;2023-09-12T13:06:08;35.00;65.40
19385;DHT22;9828;54.122;17.974;2023-09-12T13:11:34;35.10;66.80
19385;DHT22;9828;54.122;17.974;2023-09-12T13:16:56;35.40;66.90
19385;DHT22;9828;54.122;17.974;2023-09-12T13:22:17;34.80;67.20
19385;DHT22;9828;54.122;17.974;2023-09-12T13:27:39;34.20;65.80
19385;DHT22;9828;54.122;17.974;2023-09-12T13:33:00;33.80;65.10
19385;DHT22;9828;54.122;17.974;2023-09-12T13:38:22;33.80;63.90
19385;DHT22;9828;54.122;17.974;2023-09-12T13:43:43;33.90;64.60
19385;DHT22;9828;54.122;17.974;2023-09-12T13:49:08;33.50;64.50
19385;DHT22;9828;54.122;17.974;2023-09-12T13:54:29;33.40;65.70
19385;DHT22;9828;54.122;17.974;2023-09-12T13:59:50;33.20;64.60
19385;DHT22;9828;54.122;17.974;2023-09-12T14:05:12;32.90;64.70
19385;DHT22;9828;54.122;17.974;2023-09-12T14:16:00;32.40;62.80
19385;DHT22;9828;54.122;17.974;2023-09-12T14:21:22;32.10;64.50
19385;DHT22;9828;54.122;17.974;2023-09-12T14:26:43;31.70;65.50
19385;DHT22;9828;54.122;17.974;2023-09-12T14:32:05;31.40;66.90
19385;DHT22;9828;54.122;17.974;2023-09-12T14:43:40;30.80;67.80
19385;DHT22;9828;54.122;17.974;2023-09-12T14:49:05;30.90;66.80
19385;DHT22;9828;54.122;17.974;2023-09-12T14:54:26;30.80;65.80
19385;DHT22;9828;54.122;17.974;2023-09-12T14:59:47;30.70;66.90
19385;DHT22;9828;54.122;17.974;2023-09-12T15:05:08;30.60;68.30
19385;DHT22;9828;54.122;17.974;2023-09-12T15:10:29;30.40;71.00
19385;DHT22;9828;54.122;17.974;2023-09-12T15:15:50;30.20;66.70
19385;DHT22;9828;54.122;17.974;2023-09-12T15:21:11;30.20;68.10
19385;DHT22;9828;54.122;17.974;2023-09-12T15:26:32;30.10;68.50
19385;DHT22;9828;54.122;17.974;2023-09-12T15:31:54;30.00;67.70
19385;DHT22;9828;54.122;17.974;2023-09-12T15:37:15;29.90;70.20
19385;DHT22;9828;54.122;17.974;2023-09-12T15:42:41;29.70;69.10
19385;DHT22;9828;54.122;17.974;2023-09-12T15:48:02;29.50;69.40
19385;DHT22;9828;54.122;17.974;2023-09-12T15:53:23;29.50;71.10
19385;DHT22;9828;54.122;17.974;2023-09-12T15:58:46;29.40;72.20
19385;DHT22;9828;54.122;17.974;2023-09-12T16:04:10;29.30;78.90
19385;DHT22;9828;54.122;17.974;2023-09-12T16:09:31;29.10;70.50
19385;DHT22;9828;54.122;17.974;2023-09-12T17:02:02;27.00;67.50
19385;DHT22;9828;54.122;17.974;2023-09-12T17:07:23;26.70;90.10
19385;DHT22;9828;54.122;17.974;2023-09-12T17:12:44;26.60;90.60
19385;DHT22;9828;54.122;17.974;2023-09-12T17:18:05;26.40;89.70
19385;DHT22;9828;54.122;17.974;2023-09-12T17:23:27;26.20;91.20
19385;DHT22;9828;54.122;17.974;2023-09-12T17:28:48;26.10;91.70
19385;DHT22;9828;54.122;17.974;2023-09-12T17:34:08;25.90;91.70
19385;DHT22;9828;54.122;17.974;2023-09-12T17:39:29;25.80;92.30
19385;DHT22;9828;54.122;17.974;2023-09-12T17:51:51;25.30;94.90
19385;DHT22;9828;54.122;17.974;2023-09-12T17:57:12;25.20;95.90
19385;DHT22;9828;54.122;17.974;2023-09-12T18:02:33;25.00;96.10
19385;DHT22;9828;54.122;17.974;2023-09-12T18:07:54;24.80;98.40
19385;DHT22;9828;54.122;17.974;2023-09-12T18:13:16;24.70;99.10
19385;DHT22;9828;54.122;17.974;2023-09-12T18:18:38;24.60;99.40
19385;DHT22;9828;54.122;17.974;2023-09-12T18:23:59;24.40;99.90
19385;DHT22;9828;54.122;17.974;2023-09-12T18:29:20;24.30;99.90
19385;DHT22;9828;54.122;17.974;2023-09-12T18:40:05;24.10;92.80
19385;DHT22;9828;54.122;17.974;2023-09-12T18:45:26;24.10;99.90
19385;DHT22;9828;54.122;17.974;2023-09-12T18:50:47;24.20;99.90
19385;DHT22;9828;54.122;17.974;2023-09-12T18:56:09;24.10;99.90
19385;DHT22;9828;54.122;17.974;2023-09-12T19:01:29;24.00;99.90
19385;DHT22;9828;54.122;17.974;2023-09-12T19:06:51;24.00;99.90
19385;DHT22;9828;54.122;17.974;2023-09-12T19:12:12;23.90;99.90
19385;DHT22;9828;54.122;17.974;2023-09-12T19:17:33;23.80;99.90
19385;DHT22;9828;54.122;17.974;2023-09-12T19:22:54;23.70;99.90
19385;DHT22;9828;54.122;17.974;2023-09-12T19:28:16;23.70;1.00
19385;DHT22;9828;54.122;17.974;2023-09-12T19:39:00;23.20;99.90
19385;DHT22;9828;54.122;17.974;2023-09-12T19:44:22;23.20;1.00
19385;DHT22;9828;54.122;17.974;2023-09-12T19:49:43;23.00;99.90
19385;DHT22;9828;54.122;17.974;2023-09-12T19:55:05;22.90;99.90
19385;DHT22;9828;54.122;17.974;2023-09-12T20:00:27;22.90;99.90
19385;DHT22;9828;54.122;17.974;2023-09-12T20:05:49;22.90;99.90
19385;DHT22;9828;54.122;17.974;2023-09-12T20:11:10;22.90;99.90
19385;DHT22;9828;54.122;17.974;2023-09-12T20:16:31;22.90;99.90
19385;DHT22;9828;54.122;17.974;2023-09-12T20:21:52;22.90;99.90
19385;DHT22;9828;54.122;17.974;2023-09-12T20:27:14;22.80;99.90
19385;DHT22;9828;54.122;17.974;2023-09-12T20:32:35;22.90;99.90
19385;DHT22;9828;54.122;17.974;2023-09-12T20:38:04;22.70;99.90
19385;DHT22;9828;54.122;17.974;2023-09-12T20:43:28;22.60;99.90
19385;DHT22;9828;54.122;17.974;2023-09-12T20:48:50;22.50;99.90
19385;DHT22;9828;54.122;17.974;2023-09-12T20:54:12;22.60;99.90
19385;DHT22;9828;54.122;17.974;2023-09-12T20:59:33;22.60;99.90
19385;DHT22;9828;54.122;17.974;2023-09-12T21:04:54;22.40;1.00
19385;DHT22;9828;54.122;17.974;2023-09-12T21:10:15;22.30;99.90
19385;DHT22;9828;54.122;17.974;2023-09-12T21:15:37;22.20;99.90
19385;DHT22;9828;54.122;17.974;2023-09-12T22:30:38;21.70;99.90
19385;DHT22;9828;54.122;17.974;2023-09-12T22:46:47;21.20;93.50
19385;DHT22;9828;54.122;17.974;2023-09-12T22:52:10;21.00;99.90
19385;DHT22;9828;54.122;17.974;2023-09-12T22:57:32;20.90;99.90
19385;DHT22;9828;54.122;17.974;2023-09-12T23:02:53;20.90;99.90
19385;DHT22;9828;54.122;17.974;2023-09-12T23:13:36;20.70;1.00
19385;DHT22;9828;54.122;17.974;2023-09-12T23:18:57;20.70;1.00
19385;DHT22;9828;54.122;17.974;2023-09-12T23:24:18;20.60;1.00
19385;DHT22;9828;54.122;17.974;2023-09-12T23:29:40;20.60;99.90
19385;DHT22;9828;54.122;17.974;2023-09-12T23:35:01;20.50;99.90
19385;DHT22;9828;54.122;17.974;2023-09-12T23:40:22;20.40;1.00
19385;DHT22;9828;54.122;17.974;2023-09-12T23:45:44;20.40;99.90
19385;DHT22;9828;54.122;17.974;2023-09-12T23:51:05;20.30;1.00
19385;DHT22;9828;54.122;17.974;2023-09-12T23:56:26;20.30;1.00
